Jackman, Maine
Current Conditions -  °F | °C
As of 4:00 PM on Saturday 22 Nov 2014 (Local Time) from CYSC Reporting Station
Overcast Overcast  
Wind Chill: -1°   Ceiling: 3400
Heat Index:   Visibility: 9mi
Dew Point: -9°   Wind: 5mph
Humidity: 48%   Direction: 200°SSW
Pressure: 29.87"   Gusts: NA
Location:  45.62°N, 70.25°W
Report Text: CYSC 222100Z AUTO 20004KT 9SM OVC034 01/M09 A2987 RMK PRESFR SLP128
Loading
Personal Weather Stations






























Interactive Weather Map New forecast layout! Learn more

10-Day Weather Forecast

Advertisements
Track Severe Weather on mobile